createdAt,value
2022-09-17T00:02:21.220Z,12.06
2022-09-17T00:05:50.678Z,12.05
2022-09-17T00:09:18.404Z,12.08
2022-09-17T00:12:47.559Z,12.11
2022-09-17T00:16:22.518Z,12.14
2022-09-17T00:19:50.163Z,12.12
2022-09-17T00:23:17.809Z,12.10
2022-09-17T00:26:45.937Z,12.03
2022-09-17T00:30:17.320Z,11.97
2022-09-17T00:33:44.089Z,11.84
2022-09-17T00:37:12.408Z,11.74
2022-09-17T00:40:42.674Z,11.67
2022-09-17T00:44:39.687Z,11.62
2022-09-17T00:48:09.604Z,11.54
2022-09-17T00:51:41.782Z,11.47
2022-09-17T00:55:18.193Z,11.40
2022-09-17T00:58:45.204Z,11.35
2022-09-17T01:02:12.817Z,11.29
2022-09-17T01:05:47.497Z,11.27
2022-09-17T01:09:33.109Z,11.29
2022-09-17T01:13:18.375Z,11.30
2022-09-17T01:17:02.319Z,11.28
2022-09-17T01:21:04.460Z,11.23
2022-09-17T01:24:50.273Z,11.21
2022-09-17T01:28:40.822Z,11.17
2022-09-17T01:32:14.551Z,11.09
2022-09-17T01:35:52.708Z,11.01
2022-09-17T01:39:30.926Z,10.91
2022-09-17T01:43:05.938Z,10.85
2022-09-17T01:46:44.238Z,10.79
2022-09-17T01:50:47.171Z,10.72
2022-09-17T01:54:42.676Z,10.66
2022-09-17T01:58:39.984Z,10.58
2022-09-17T02:02:49.624Z,10.54
2022-09-17T02:07:14.450Z,10.51
2022-09-17T02:11:06.245Z,10.52
2022-09-17T02:15:03.518Z,10.48
2022-09-17T02:18:36.038Z,10.51
2022-09-17T02:22:11.041Z,10.50
2022-09-17T02:25:44.982Z,10.50
2022-09-17T02:29:21.162Z,10.48
2022-09-17T02:32:48.173Z,10.45
2022-09-17T02:36:15.756Z,10.41
2022-09-17T02:39:43.994Z,10.34
2022-09-17T02:43:16.301Z,10.30
2022-09-17T02:46:59.009Z,10.26
2022-09-17T02:50:37.507Z,10.26
2022-09-17T02:54:14.235Z,10.27
2022-09-17T02:57:49.443Z,10.25
2022-09-17T03:01:32.698Z,10.22
2022-09-17T03:05:00.618Z,10.21
2022-09-17T03:08:44.438Z,10.21
2022-09-17T03:12:11.890Z,10.22
2022-09-17T03:15:38.857Z,10.25
2022-09-17T03:19:06.305Z,10.27
2022-09-17T03:22:33.334Z,10.33
2022-09-17T03:26:00.162Z,10.38
2022-09-17T03:29:27.040Z,10.44
2022-09-17T03:32:53.915Z,10.46
2022-09-17T03:36:24.919Z,10.48
2022-09-17T03:39:51.817Z,10.48
2022-09-17T03:43:20.571Z,10.45
2022-09-17T03:46:47.992Z,10.39
2022-09-17T03:50:15.131Z,10.33
2022-09-17T03:53:42.594Z,10.28
2022-09-17T03:57:09.891Z,10.21
2022-09-17T04:00:38.296Z,10.17
2022-09-17T04:04:05.810Z,10.14
2022-09-17T04:07:32.829Z,10.09
2022-09-17T04:10:59.365Z,10.05
2022-09-17T04:14:27.343Z,10.03
2022-09-17T04:17:57.917Z,10.02
2022-09-17T04:21:24.943Z,10.02
2022-09-17T04:24:51.675Z,10.06
2022-09-17T04:28:19.052Z,10.08
2022-09-17T04:31:46.326Z,10.12
2022-09-17T04:35:13.494Z,10.19
2022-09-17T04:38:40.660Z,10.25
2022-09-17T04:42:07.675Z,10.31
2022-09-17T04:45:34.869Z,10.33
2022-09-17T04:49:01.760Z,10.35
2022-09-17T04:52:30.993Z,10.38
2022-09-17T04:55:57.820Z,10.37
2022-09-17T04:59:24.898Z,10.37
2022-09-17T05:02:53.775Z,10.39
2022-09-17T05:06:20.571Z,10.38
2022-09-17T05:09:47.815Z,10.37
2022-09-17T05:13:14.280Z,10.38
2022-09-17T05:16:41.096Z,10.37
2022-09-17T05:20:09.865Z,10.37
2022-09-17T05:23:36.953Z,10.37
2022-09-17T05:27:03.710Z,10.40
2022-09-17T05:30:31.637Z,10.46
2022-09-17T05:34:00.936Z,10.48
2022-09-17T05:37:27.724Z,10.55
2022-09-17T05:40:54.358Z,10.62
2022-09-17T05:44:21.445Z,10.69
2022-09-17T05:47:48.542Z,10.78
2022-09-17T05:51:15.913Z,10.88
2022-09-17T05:54:45.729Z,10.97
2022-09-17T05:58:19.621Z,11.02
2022-09-17T06:01:51.199Z,11.05
2022-09-17T06:05:18.659Z,11.04
2022-09-17T06:08:45.933Z,11.03
2022-09-17T06:12:13.129Z,11.05
2022-09-17T06:15:40.087Z,11.04
2022-09-17T06:19:06.916Z,11.08
2022-09-17T06:22:33.737Z,11.14
2022-09-17T06:26:01.477Z,11.21
2022-09-17T06:29:28.086Z,11.26
2022-09-17T06:32:55.318Z,11.33
2022-09-17T06:36:22.694Z,11.35
2022-09-17T06:39:49.197Z,11.44
2022-09-17T06:43:17.707Z,11.51
2022-09-17T06:46:44.492Z,11.51
2022-09-17T06:50:13.682Z,11.52
2022-09-17T06:53:43.275Z,11.50
2022-09-17T06:57:10.757Z,11.51
2022-09-17T07:00:37.844Z,11.53
2022-09-17T07:04:10.206Z,11.58
2022-09-17T07:07:39.962Z,11.66
2022-09-17T07:11:07.103Z,11.72
2022-09-17T07:14:34.162Z,11.78
2022-09-17T07:18:02.854Z,11.88
2022-09-17T07:21:29.928Z,11.89
2022-09-17T07:24:56.863Z,11.94
2022-09-17T07:28:24.263Z,12.01
2022-09-17T07:31:51.507Z,12.06
2022-09-17T07:35:19.040Z,12.11
2022-09-17T07:38:46.198Z,12.16
2022-09-17T07:42:13.416Z,12.20
2022-09-17T07:45:40.217Z,12.25
2022-09-17T07:49:07.621Z,12.27
2022-09-17T07:52:34.172Z,12.29
2022-09-17T07:56:02.805Z,12.33
2022-09-17T07:59:30.373Z,12.35
2022-09-17T08:02:58.327Z,12.39
2022-09-17T08:06:28.478Z,12.47
2022-09-17T08:09:56.505Z,12.59
2022-09-17T08:13:23.311Z,12.70
2022-09-17T08:16:50.658Z,12.81
2022-09-17T08:20:19.367Z,12.91
2022-09-17T08:23:46.926Z,12.97
2022-09-17T08:27:14.086Z,13.04
2022-09-17T08:30:40.934Z,13.08
2022-09-17T08:34:12.749Z,13.16
2022-09-17T08:37:39.633Z,13.18
2022-09-17T08:41:22.521Z,13.19
2022-09-17T08:44:52.078Z,13.28
2022-09-17T08:48:20.483Z,13.36
2022-09-17T08:52:00.046Z,13.44
2022-09-17T08:55:35.384Z,13.53
2022-09-17T08:59:13.329Z,13.65
2022-09-17T09:03:00.950Z,13.75
2022-09-17T09:06:37.905Z,13.80
2022-09-17T09:10:14.283Z,13.90
2022-09-17T09:13:47.895Z,13.95
2022-09-17T09:17:17.349Z,13.99
2022-09-17T09:20:49.747Z,14.04
2022-09-17T09:24:26.358Z,14.06
2022-09-17T09:28:19.271Z,14.10
2022-09-17T09:31:58.221Z,14.14
2022-09-17T09:35:28.779Z,14.23
2022-09-17T09:39:02.025Z,14.32
2022-09-17T09:42:34.073Z,14.47
2022-09-17T09:46:21.574Z,14.56
2022-09-17T09:50:10.425Z,14.71
2022-09-17T09:53:47.701Z,14.83
2022-09-17T09:57:18.053Z,14.90
2022-09-17T10:00:46.082Z,14.95
2022-09-17T10:04:20.554Z,14.97
2022-09-17T10:07:49.096Z,14.97
2022-09-17T10:11:27.008Z,14.95
2022-09-17T10:14:54.825Z,14.97
2022-09-17T10:18:26.149Z,15.00
2022-09-17T10:21:53.859Z,15.05
2022-09-17T10:25:30.153Z,15.10
2022-09-17T10:28:59.801Z,15.14
2022-09-17T10:32:27.259Z,15.26
2022-09-17T10:36:04.702Z,15.38
2022-09-17T10:39:44.556Z,15.51
2022-09-17T10:43:25.263Z,15.64
2022-09-17T10:46:52.543Z,15.75
2022-09-17T10:50:23.070Z,15.82
2022-09-17T10:54:24.990Z,15.92
2022-09-17T10:58:15.101Z,16.05
2022-09-17T11:02:07.362Z,16.12
2022-09-17T11:05:53.859Z,16.22
2022-09-17T11:09:31.608Z,16.27
2022-09-17T11:13:18.700Z,16.28
2022-09-17T11:16:57.721Z,16.32
2022-09-17T11:20:44.584Z,16.41
2022-09-17T11:24:38.730Z,16.58
2022-09-17T11:28:11.542Z,16.72
2022-09-17T11:31:48.715Z,16.77
2022-09-17T11:35:20.987Z,16.81
2022-09-17T11:38:51.726Z,16.78
2022-09-17T11:42:23.627Z,16.70
2022-09-17T11:45:58.225Z,16.71
2022-09-17T11:49:35.615Z,16.96
2022-09-17T11:53:12.311Z,17.25
2022-09-17T11:56:46.056Z,17.49
2022-09-17T12:00:20.724Z,17.76
2022-09-17T12:03:54.470Z,18.09
2022-09-17T12:07:36.607Z,18.35
2022-09-17T12:11:12.764Z,18.40
2022-09-17T12:15:05.493Z,18.62
2022-09-17T12:18:42.214Z,18.64
2022-09-17T12:22:15.439Z,19.04
2022-09-17T12:25:48.273Z,19.58
2022-09-17T12:33:54.759Z,20.03
2022-09-17T12:37:33.424Z,19.77
2022-09-17T12:41:08.568Z,19.78
2022-09-17T12:45:09.181Z,19.50
2022-09-17T12:48:57.712Z,19.14
2022-09-17T12:52:39.489Z,19.12
2022-09-17T12:56:14.965Z,19.36
2022-09-17T12:59:49.899Z,19.67
2022-09-17T13:03:26.680Z,19.46
2022-09-17T13:07:31.149Z,19.22
2022-09-17T13:11:27.805Z,18.93
2022-09-17T13:15:23.016Z,18.66
2022-09-17T13:19:17.290Z,18.42
2022-09-17T13:22:50.978Z,18.23
2022-09-17T13:26:21.928Z,18.03
2022-09-17T13:30:06.785Z,17.86
2022-09-17T13:33:54.571Z,17.64
2022-09-17T13:37:24.723Z,17.37
2022-09-17T13:40:53.297Z,17.18
2022-09-17T13:44:25.402Z,16.99
2022-09-17T13:47:56.379Z,16.77
2022-09-17T13:51:53.532Z,16.65
2022-09-17T13:55:40.178Z,16.57
2022-09-17T13:59:12.627Z,16.55
2022-09-17T14:02:41.088Z,16.62
2022-09-17T14:06:38.394Z,16.74
2022-09-17T14:10:42.527Z,16.96
2022-09-17T14:14:50.299Z,17.22
2022-09-17T14:18:44.013Z,17.56
2022-09-17T14:22:17.025Z,17.73
2022-09-17T14:25:51.107Z,17.80
2022-09-17T14:29:37.025Z,18.02
2022-09-17T14:33:15.125Z,18.21
2022-09-17T14:36:44.525Z,18.22
2022-09-17T14:40:18.464Z,18.12
2022-09-17T14:43:51.592Z,17.97
2022-09-17T14:47:22.193Z,17.86
2022-09-17T14:50:50.354Z,17.76
2022-09-17T14:54:33.653Z,17.60
2022-09-17T14:58:06.267Z,17.41
2022-09-17T15:01:35.365Z,17.21
2022-09-17T15:05:04.582Z,17.10
2022-09-17T15:08:33.247Z,17.02
2022-09-17T15:12:06.361Z,16.93
2022-09-17T15:15:34.745Z,16.82
2022-09-17T15:19:03.847Z,16.69
2022-09-17T15:22:33.837Z,16.60
2022-09-17T15:26:07.507Z,16.52
2022-09-17T15:29:38.421Z,16.43
2022-09-17T15:33:05.388Z,16.33
2022-09-17T15:36:35.055Z,16.27
2022-09-17T15:40:13.509Z,16.23
2022-09-17T15:43:44.317Z,16.16
2022-09-17T15:47:50.995Z,16.09
2022-09-17T15:51:27.824Z,15.99
2022-09-17T15:54:56.200Z,15.93
2022-09-17T15:58:28.799Z,15.88
2022-09-17T16:01:58.353Z,15.83
2022-09-17T16:05:55.685Z,15.81
2022-09-17T16:09:50.306Z,15.79
2022-09-17T16:13:17.080Z,15.76
2022-09-17T16:16:44.685Z,15.74
2022-09-17T16:20:17.918Z,15.72
2022-09-17T16:23:46.504Z,15.67
2022-09-17T16:27:21.143Z,15.59
2022-09-17T16:30:50.495Z,15.55
2022-09-17T16:34:20.028Z,15.49
2022-09-17T16:37:49.354Z,15.41
2022-09-17T16:41:16.304Z,15.32
2022-09-17T16:44:44.055Z,15.26
2022-09-17T16:48:11.236Z,15.18
2022-09-17T16:51:38.715Z,15.11
2022-09-17T16:55:07.063Z,15.03
2022-09-17T16:58:34.778Z,14.97
2022-09-17T17:02:02.919Z,14.92
2022-09-17T17:05:30.698Z,14.90
2022-09-17T17:09:01.033Z,14.88
2022-09-17T17:12:28.320Z,14.86
2022-09-17T17:15:57.854Z,14.83
2022-09-17T17:19:25.571Z,14.81
2022-09-17T17:22:55.303Z,14.77
2022-09-17T17:26:22.418Z,14.74
2022-09-17T17:29:50.345Z,14.69
2022-09-17T17:33:18.159Z,14.65
2022-09-17T17:36:46.410Z,14.61
2022-09-17T17:40:15.123Z,14.55
2022-09-17T17:43:42.554Z,14.48
2022-09-17T17:47:10.059Z,14.41
2022-09-17T17:50:37.356Z,14.34
2022-09-17T17:54:05.239Z,14.30
2022-09-17T17:57:32.562Z,14.27
2022-09-17T18:01:00.006Z,14.26
2022-09-17T18:04:28.147Z,14.27
2022-09-17T18:07:56.937Z,14.29
2022-09-17T18:11:24.805Z,14.29
2022-09-17T18:14:58.228Z,14.29
2022-09-17T18:18:26.376Z,14.31
2022-09-17T18:21:55.762Z,14.29
2022-09-17T18:25:23.130Z,14.28
2022-09-17T18:28:50.282Z,14.27
2022-09-17T18:32:18.817Z,14.23
2022-09-17T18:35:46.035Z,14.18
2022-09-17T18:39:53.256Z,14.13
2022-09-17T18:43:03.634Z,14.06
2022-09-17T18:46:32.147Z,14.00
2022-09-17T18:49:58.771Z,13.95
2022-09-17T18:53:25.880Z,13.88
2022-09-17T18:56:52.758Z,13.84
2022-09-17T19:00:20.795Z,13.81
2022-09-17T19:03:50.842Z,13.82
2022-09-17T19:07:20.806Z,13.81
2022-09-17T19:10:57.029Z,13.79
2022-09-17T19:14:25.900Z,13.80
2022-09-17T19:17:54.906Z,13.82
2022-09-17T19:21:23.596Z,13.84
2022-09-17T19:24:51.650Z,13.85
2022-09-17T19:28:20.772Z,13.82
2022-09-17T19:31:48.146Z,13.80
2022-09-17T19:35:23.422Z,13.78
2022-09-17T19:38:53.029Z,13.76
2022-09-17T19:42:33.250Z,13.72
2022-09-17T19:46:06.975Z,13.69
2022-09-17T19:49:36.622Z,13.63
2022-09-17T19:53:08.110Z,13.61
2022-09-17T19:56:43.590Z,13.58
2022-09-17T20:00:16.528Z,13.55
2022-09-17T20:03:45.269Z,13.54
2022-09-17T20:07:14.189Z,13.55
2022-09-17T20:10:42.588Z,13.55
2022-09-17T20:14:10.358Z,13.59
2022-09-17T20:17:39.519Z,13.62
2022-09-17T20:21:12.984Z,13.67
2022-09-17T20:24:47.653Z,13.69
2022-09-17T20:28:17.494Z,13.72
2022-09-17T20:31:47.480Z,13.75
2022-09-17T20:35:14.382Z,13.74
2022-09-17T20:39:11.546Z,13.75
2022-09-17T20:42:30.519Z,13.73
2022-09-17T20:45:59.439Z,13.68
2022-09-17T20:49:29.855Z,13.64
2022-09-17T20:53:01.113Z,13.62
2022-09-17T20:56:34.679Z,13.59
2022-09-17T21:00:18.353Z,13.54
2022-09-17T21:03:50.964Z,13.51
2022-09-17T21:07:19.778Z,13.52
2022-09-17T21:10:49.441Z,13.55
2022-09-17T21:14:19.679Z,13.58
2022-09-17T21:17:48.583Z,13.57
2022-09-17T21:21:20.038Z,13.56
2022-09-17T21:24:50.384Z,13.56
2022-09-17T21:28:26.495Z,13.58
2022-09-17T21:31:54.593Z,13.59
2022-09-17T21:35:30.364Z,13.60
2022-09-17T21:39:00.878Z,13.62
2022-09-17T21:42:28.172Z,13.60
2022-09-17T21:46:12.573Z,13.57
2022-09-17T21:49:37.650Z,13.50
2022-09-17T21:53:04.658Z,13.45
2022-09-17T21:56:35.564Z,13.39
2022-09-17T22:00:03.768Z,13.31
2022-09-17T22:03:32.168Z,13.24
2022-09-17T22:07:01.155Z,13.22
2022-09-17T22:10:29.538Z,13.19
2022-09-17T22:13:59.100Z,13.18
2022-09-17T22:17:26.322Z,13.19
2022-09-17T22:20:55.897Z,13.25
2022-09-17T22:24:24.023Z,13.29
2022-09-17T22:28:16.776Z,13.28
2022-09-17T22:31:41.967Z,13.23
2022-09-17T22:35:11.443Z,13.25
2022-09-17T22:38:40.297Z,13.27
2022-09-17T22:42:08.578Z,13.25
2022-09-17T22:45:40.977Z,13.23
2022-09-17T22:49:08.981Z,13.23
2022-09-17T22:52:35.943Z,13.22
2022-09-17T22:56:03.688Z,13.18
2022-09-17T22:59:30.510Z,13.14
2022-09-17T23:02:58.725Z,13.11
2022-09-17T23:06:29.524Z,13.07
2022-09-17T23:09:57.046Z,13.02
2022-09-17T23:13:27.629Z,12.97
2022-09-17T23:16:54.725Z,12.94
2022-09-17T23:20:22.156Z,12.94
2022-09-17T23:23:53.766Z,12.95
2022-09-17T23:27:20.887Z,12.92
2022-09-17T23:30:48.364Z,12.94
2022-09-17T23:34:16.095Z,12.94
2022-09-17T23:37:45.050Z,12.95
2022-09-17T23:41:14.982Z,12.92
2022-09-17T23:44:42.068Z,12.89
2022-09-17T23:48:09.054Z,12.89
2022-09-17T23:51:38.138Z,12.86
2022-09-17T23:55:04.931Z,12.81
2022-09-17T23:58:34.613Z,12.75
